Humboldt, Kansas
Current Conditions -  °F | °C
As of 8:52 AM on Saturday 22 Nov 2014 (Local Time) from KCNU Reporting Station
Haze Haze  
Wind Chill: 55°   Ceiling: 700
Heat Index: 55°   Visibility: 6mi
Dew Point: 54°   Wind: 16mph
Humidity: 96%   Direction: 180°S
Pressure: 30"   Gusts: 24mph
Location:  37.81°N, 95.44°W
Report Text: KCNU 221452Z AUTO 18014G21KT 6SM BR OVC007 13/12 A3000 RMK AO2 SLP155 T01280122 58001
Loading
Personal Weather Stations






























Interactive Weather Map New forecast layout! Learn more

10-Day Weather Forecast

Advertisements
Track Severe Weather on mobile